createdAt,value
2023-03-11T00:02:03.279Z,10.38
2023-03-11T00:04:10.644Z,10.37
2023-03-11T00:06:15.304Z,10.37
2023-03-11T00:08:22.757Z,10.36
2023-03-11T00:10:30.262Z,10.35
2023-03-11T00:12:35.309Z,10.32
2023-03-11T00:14:40.055Z,10.30
2023-03-11T00:16:47.449Z,10.29
2023-03-11T00:18:53.557Z,10.27
2023-03-11T00:20:59.588Z,10.24
2023-03-11T00:23:05.698Z,10.24
2023-03-11T00:25:12.022Z,10.23
2023-03-11T00:27:16.637Z,10.25
2023-03-11T00:29:22.300Z,10.25
2023-03-11T00:31:27.181Z,10.24
2023-03-11T00:33:31.895Z,10.22
2023-03-11T00:35:37.317Z,10.22
2023-03-11T00:37:42.184Z,10.21
2023-03-11T00:39:46.792Z,10.20
2023-03-11T00:41:51.510Z,10.21
2023-03-11T00:43:56.221Z,10.12
2023-03-11T00:46:01.167Z,9.98
2023-03-11T00:48:06.266Z,9.73
2023-03-11T00:50:16.299Z,9.42
2023-03-11T00:52:21.020Z,9.18
2023-03-11T00:54:26.136Z,8.97
2023-03-11T00:56:30.982Z,8.79
2023-03-11T00:58:35.620Z,8.67
2023-03-11T01:00:41.368Z,8.59
2023-03-11T01:02:46.268Z,8.53
2023-03-11T01:04:55.212Z,8.49
2023-03-11T01:06:59.962Z,8.45
2023-03-11T01:09:04.943Z,8.45
2023-03-11T01:11:10.060Z,8.41
2023-03-11T01:13:14.734Z,8.41
2023-03-11T01:15:23.700Z,8.40
2023-03-11T01:17:28.406Z,8.40
2023-03-11T01:19:33.072Z,8.40
2023-03-11T01:21:39.054Z,8.40
2023-03-11T01:23:44.899Z,8.41
2023-03-11T01:25:49.926Z,8.42
2023-03-11T01:27:54.581Z,8.44
2023-03-11T01:29:59.294Z,8.45
2023-03-11T01:32:04.476Z,8.47
2023-03-11T01:34:09.249Z,8.47
2023-03-11T01:36:13.888Z,8.47
2023-03-11T01:38:18.611Z,8.48
2023-03-11T01:40:26.956Z,8.50
2023-03-11T01:42:31.747Z,8.52
2023-03-11T01:44:36.462Z,8.52
2023-03-11T01:47:20.021Z,8.51
2023-03-11T01:49:24.769Z,8.48
2023-03-11T01:51:33.422Z,8.48
2023-03-11T01:53:38.181Z,8.43
2023-03-11T01:55:43.492Z,8.41
2023-03-11T01:57:49.618Z,8.38
2023-03-11T01:59:58.598Z,8.37
2023-03-11T02:02:09.783Z,8.37
2023-03-11T02:04:16.085Z,8.37
2023-03-11T02:06:23.877Z,8.36
2023-03-11T02:08:29.339Z,8.31
2023-03-11T02:10:34.420Z,8.26
2023-03-11T02:12:39.934Z,8.21
2023-03-11T02:14:48.421Z,8.16
2023-03-11T02:16:53.228Z,8.05
2023-03-11T02:19:00.472Z,7.95
2023-03-11T02:21:15.976Z,7.84
2023-03-11T02:23:24.882Z,7.73
2023-03-11T02:25:36.232Z,7.61
2023-03-11T02:27:45.470Z,7.53
2023-03-11T02:29:51.356Z,7.44
2023-03-11T02:31:56.953Z,7.35
2023-03-11T02:34:05.930Z,7.28
2023-03-11T02:36:32.239Z,7.20
2023-03-11T02:38:37.251Z,7.12
2023-03-11T02:40:51.848Z,7.07
2023-03-11T02:43:00.436Z,7.01
2023-03-11T02:45:09.175Z,6.98
2023-03-11T02:47:14.523Z,6.92
2023-03-11T02:49:20.474Z,6.88
2023-03-11T02:51:25.331Z,6.85
2023-03-11T02:53:33.044Z,6.81
2023-03-11T02:55:38.244Z,6.77
2023-03-11T02:57:44.802Z,6.73
2023-03-11T02:59:49.478Z,6.70
2023-03-11T03:01:54.814Z,6.67
2023-03-11T03:03:59.648Z,6.65
2023-03-11T03:06:05.306Z,6.63
2023-03-11T03:08:10.084Z,6.58
2023-03-11T03:10:16.866Z,6.56
2023-03-11T03:12:21.640Z,6.54
2023-03-11T03:14:26.458Z,6.49
2023-03-11T03:16:31.193Z,6.46
2023-03-11T03:18:35.950Z,6.43
2023-03-11T03:20:40.632Z,6.41
2023-03-11T03:22:45.641Z,6.38
2023-03-11T03:24:51.922Z,6.37
2023-03-11T03:26:56.729Z,6.34
2023-03-11T03:29:01.534Z,6.32
2023-03-11T03:31:08.060Z,6.29
2023-03-11T03:33:13.398Z,6.27
2023-03-11T03:35:18.562Z,6.27
2023-03-11T03:37:43.540Z,6.23
2023-03-11T03:39:48.196Z,6.22
2023-03-11T03:41:53.008Z,6.18
2023-03-11T03:43:58.820Z,6.14
2023-03-11T03:46:05.449Z,6.11
2023-03-11T03:48:16.132Z,6.08
2023-03-11T03:50:22.551Z,6.07
2023-03-11T03:52:27.863Z,6.04
2023-03-11T03:54:32.720Z,6.01
2023-03-11T03:56:38.041Z,5.98
2023-03-11T03:58:42.977Z,5.96
2023-03-11T04:00:48.057Z,5.94
2023-03-11T04:02:52.951Z,5.91
2023-03-11T04:05:03.613Z,5.87
2023-03-11T04:07:08.514Z,5.83
2023-03-11T04:09:16.573Z,5.80
2023-03-11T04:11:22.154Z,5.75
2023-03-11T04:13:26.900Z,5.69
2023-03-11T04:15:32.658Z,5.64
2023-03-11T04:17:38.136Z,5.58
2023-03-11T04:19:42.984Z,5.55
2023-03-11T04:21:48.180Z,5.51
2023-03-11T04:23:52.998Z,5.46
2023-03-11T04:25:58.638Z,5.41
2023-03-11T04:28:03.440Z,5.37
2023-03-11T04:30:11.379Z,5.32
2023-03-11T04:32:16.261Z,5.28
2023-03-11T04:34:21.865Z,5.25
2023-03-11T04:36:27.321Z,5.22
2023-03-11T04:38:32.011Z,5.17
2023-03-11T04:40:38.058Z,5.14
2023-03-11T04:42:43.033Z,5.10
2023-03-11T04:44:47.917Z,5.08
2023-03-11T04:46:53.032Z,5.08
2023-03-11T04:48:57.773Z,5.06
2023-03-11T04:51:02.748Z,5.02
2023-03-11T04:53:07.608Z,5.00
2023-03-11T04:55:13.574Z,4.97
2023-03-11T04:57:18.638Z,4.95
2023-03-11T04:59:23.508Z,4.92
2023-03-11T05:01:28.851Z,4.88
2023-03-11T05:03:35.024Z,4.87
2023-03-11T05:05:39.877Z,4.84
2023-03-11T05:07:44.674Z,4.81
2023-03-11T05:09:50.099Z,4.80
2023-03-11T05:11:54.885Z,4.78
2023-03-11T05:13:59.721Z,4.78
2023-03-11T05:16:08.045Z,4.75
2023-03-11T05:18:12.941Z,4.73
2023-03-11T05:20:18.612Z,4.71
2023-03-11T05:22:23.923Z,4.71
2023-03-11T05:24:28.921Z,4.71
2023-03-11T05:26:34.082Z,4.71
2023-03-11T05:28:39.164Z,4.69
2023-03-11T05:30:43.917Z,4.67
2023-03-11T05:32:48.763Z,4.67
2023-03-11T05:34:53.698Z,4.66
2023-03-11T05:36:59.684Z,4.68
2023-03-11T05:39:06.849Z,4.69
2023-03-11T05:41:12.176Z,4.69
2023-03-11T05:43:18.100Z,4.72
2023-03-11T05:45:27.526Z,4.74
2023-03-11T05:47:32.661Z,4.76
2023-03-11T05:49:37.566Z,4.77
2023-03-11T05:51:42.528Z,4.78
2023-03-11T05:53:48.695Z,4.80
2023-03-11T05:56:00.720Z,4.82
2023-03-11T05:58:08.358Z,4.83
2023-03-11T06:00:14.709Z,4.84
2023-03-11T06:02:21.085Z,4.87
2023-03-11T06:04:26.826Z,4.89
2023-03-11T06:06:32.188Z,4.92
2023-03-11T06:08:38.167Z,4.96
2023-03-11T06:10:43.471Z,4.98
2023-03-11T06:12:48.460Z,5.02
2023-03-11T06:15:06.959Z,5.06
2023-03-11T06:17:11.708Z,5.09
2023-03-11T06:19:16.455Z,5.11
2023-03-11T06:21:26.317Z,5.14
2023-03-11T06:23:32.022Z,5.14
2023-03-11T06:25:37.199Z,5.15
2023-03-11T06:27:41.869Z,5.17
2023-03-11T06:29:48.651Z,5.18
2023-03-11T06:31:53.985Z,5.21
2023-03-11T06:33:58.797Z,5.24
2023-03-11T06:36:05.202Z,5.27
2023-03-11T06:38:10.101Z,5.31
2023-03-11T06:40:16.540Z,5.36
2023-03-11T06:42:21.653Z,5.42
2023-03-11T06:44:26.763Z,5.42
2023-03-11T06:46:31.636Z,5.44
2023-03-11T06:48:36.386Z,5.46
2023-03-11T06:50:41.172Z,5.50
2023-03-11T06:52:45.833Z,5.53
2023-03-11T06:54:51.276Z,5.56
2023-03-11T06:56:55.918Z,5.55
2023-03-11T06:59:00.598Z,5.59
2023-03-11T07:01:11.099Z,5.63
2023-03-11T07:03:16.063Z,5.66
2023-03-11T07:05:21.696Z,5.68
2023-03-11T07:07:26.593Z,5.66
2023-03-11T07:09:31.523Z,5.68
2023-03-11T07:11:36.441Z,5.70
2023-03-11T07:13:46.737Z,5.72
2023-03-11T07:15:59.115Z,5.72
2023-03-11T07:18:03.936Z,5.73
2023-03-11T07:20:11.084Z,5.76
2023-03-11T07:22:15.928Z,5.80
2023-03-11T07:24:21.022Z,5.82
2023-03-11T07:26:27.376Z,5.84
2023-03-11T07:28:32.277Z,5.85
2023-03-11T07:30:40.073Z,5.88
2023-03-11T07:32:44.805Z,5.90
2023-03-11T07:34:49.617Z,5.90
2023-03-11T07:36:54.295Z,5.91
2023-03-11T07:39:03.143Z,5.93
2023-03-11T07:41:09.158Z,5.96
2023-03-11T07:43:13.829Z,6.00
2023-03-11T07:45:21.691Z,6.02
2023-03-11T07:47:26.351Z,6.04
2023-03-11T07:49:31.317Z,6.05
2023-03-11T07:51:39.672Z,6.05
2023-03-11T07:53:44.802Z,6.08
2023-03-11T07:55:55.028Z,6.10
2023-03-11T07:57:59.764Z,6.11
2023-03-11T08:00:05.081Z,6.12
2023-03-11T08:02:16.405Z,6.10
2023-03-11T08:04:21.098Z,6.12
2023-03-11T08:06:28.278Z,6.14
2023-03-11T08:08:32.939Z,6.16
2023-03-11T08:10:39.650Z,6.18
2023-03-11T08:12:44.345Z,6.17
2023-03-11T08:14:49.512Z,6.21
2023-03-11T08:16:54.197Z,6.24
2023-03-11T08:18:59.207Z,6.29
2023-03-11T08:21:07.740Z,6.34
2023-03-11T08:23:12.609Z,6.37
2023-03-11T08:25:17.648Z,6.40
2023-03-11T08:27:22.363Z,6.45
2023-03-11T08:29:27.250Z,6.48
2023-03-11T08:31:33.512Z,6.51
2023-03-11T08:33:38.287Z,6.58
2023-03-11T08:35:43.135Z,6.67
2023-03-11T08:37:50.834Z,6.67
2023-03-11T08:39:55.447Z,6.66
2023-03-11T08:42:00.082Z,6.67
2023-03-11T08:44:05.180Z,6.70
2023-03-11T08:46:14.346Z,6.69
2023-03-11T08:48:19.072Z,6.71
2023-03-11T08:50:23.986Z,6.79
2023-03-11T08:52:28.694Z,6.83
2023-03-11T08:54:33.733Z,6.86
2023-03-11T08:56:38.406Z,6.88
2023-03-11T08:58:43.142Z,6.86
2023-03-11T09:00:47.989Z,6.89
2023-03-11T09:02:52.757Z,6.94
2023-03-11T09:04:57.436Z,7.01
2023-03-11T09:07:02.047Z,7.05
2023-03-11T09:09:06.749Z,7.11
2023-03-11T09:11:13.180Z,7.15
2023-03-11T09:13:17.875Z,7.21
2023-03-11T09:15:22.633Z,7.22
2023-03-11T09:17:27.339Z,7.29
2023-03-11T09:19:31.986Z,7.33
2023-03-11T09:21:37.110Z,7.36
2023-03-11T09:23:44.149Z,7.38
2023-03-11T09:25:49.336Z,7.40
2023-03-11T09:27:54.125Z,7.39
2023-03-11T09:29:58.875Z,7.30
2023-03-11T09:32:03.742Z,7.29
2023-03-11T09:34:08.513Z,7.29
2023-03-11T09:36:15.499Z,7.30
2023-03-11T09:38:23.088Z,7.29
2023-03-11T09:40:52.452Z,7.22
2023-03-11T09:43:11.064Z,7.22
2023-03-11T09:45:19.443Z,7.24
2023-03-11T09:47:42.218Z,7.26
2023-03-11T09:50:23.193Z,7.24
2023-03-11T09:52:38.134Z,7.15
2023-03-11T09:54:45.889Z,7.09
2023-03-11T09:56:50.892Z,7.04
2023-03-11T09:59:01.439Z,7.03
2023-03-11T10:01:15.169Z,7.03
2023-03-11T10:03:32.865Z,7.03
2023-03-11T10:05:38.387Z,7.07
2023-03-11T10:07:45.641Z,7.11
2023-03-11T10:09:54.130Z,7.12
2023-03-11T10:12:20.191Z,7.14
2023-03-11T10:14:40.749Z,7.17
2023-03-11T10:16:56.798Z,7.13
2023-03-11T10:19:11.356Z,7.10
2023-03-11T10:21:26.071Z,7.05
2023-03-11T10:23:42.415Z,7.02
2023-03-11T10:25:59.779Z,7.01
2023-03-11T10:28:11.996Z,6.99
2023-03-11T10:30:29.722Z,7.01
2023-03-11T10:32:41.105Z,7.00
2023-03-11T10:34:51.710Z,6.97
2023-03-11T10:37:02.401Z,6.92
2023-03-11T10:39:09.969Z,6.89
2023-03-11T10:41:20.585Z,6.85
2023-03-11T10:43:31.748Z,6.74
2023-03-11T10:45:40.442Z,6.66
2023-03-11T10:47:45.096Z,6.64
2023-03-11T10:49:49.960Z,6.66
2023-03-11T10:51:56.212Z,6.68
2023-03-11T10:54:03.345Z,6.71
2023-03-11T10:56:19.193Z,6.74
2023-03-11T10:58:26.274Z,6.75
2023-03-11T11:00:31.752Z,6.72
2023-03-11T11:02:43.663Z,6.73
2023-03-11T11:04:49.277Z,6.73
2023-03-11T11:06:53.952Z,6.70
2023-03-11T11:09:14.134Z,6.70
2023-03-11T11:11:24.539Z,6.69
2023-03-11T11:13:30.881Z,6.60
2023-03-11T11:15:37.480Z,6.57
2023-03-11T11:17:49.042Z,6.54
2023-03-11T11:19:55.156Z,6.52
2023-03-11T11:22:05.445Z,6.54
2023-03-11T11:24:20.348Z,6.61
2023-03-11T11:26:26.431Z,6.75
2023-03-11T11:28:31.577Z,6.91
2023-03-11T11:30:36.210Z,7.08
2023-03-11T11:32:41.011Z,7.26
2023-03-11T11:34:56.854Z,7.43
2023-03-11T11:37:04.263Z,7.55
2023-03-11T11:39:17.008Z,7.66
2023-03-11T11:41:24.301Z,7.72
2023-03-11T11:43:48.307Z,7.73
2023-03-11T11:45:57.489Z,7.73
2023-03-11T11:48:10.222Z,7.70
2023-03-11T11:50:31.672Z,7.63
2023-03-11T11:52:45.077Z,7.49
2023-03-11T11:54:54.230Z,7.41
2023-03-11T11:57:01.316Z,7.35
2023-03-11T11:59:15.081Z,7.27
2023-03-11T12:01:28.772Z,7.23
2023-03-11T12:04:00.705Z,7.18
2023-03-11T12:06:12.320Z,7.14
2023-03-11T12:08:22.339Z,7.14
2023-03-11T12:10:31.915Z,7.16
2023-03-11T12:12:45.552Z,7.17
2023-03-11T12:14:57.763Z,7.22
2023-03-11T12:17:04.490Z,7.26
2023-03-11T12:19:19.136Z,7.27
2023-03-11T12:21:35.800Z,7.28
2023-03-11T12:23:55.121Z,7.27
2023-03-11T12:26:13.550Z,7.32
2023-03-11T12:28:23.762Z,7.32
2023-03-11T12:30:31.808Z,7.31
2023-03-11T12:32:42.217Z,7.25
2023-03-11T12:34:48.873Z,7.21
2023-03-11T12:36:55.998Z,7.15
2023-03-11T12:39:02.130Z,7.11
2023-03-11T12:41:26.436Z,7.07
2023-03-11T12:44:01.603Z,7.08
2023-03-11T12:46:07.832Z,7.12
2023-03-11T12:48:41.564Z,7.09
2023-03-11T12:50:46.369Z,7.04
2023-03-11T12:52:55.380Z,7.02
2023-03-11T12:55:36.454Z,7.03
2023-03-11T12:57:52.861Z,7.03
2023-03-11T13:00:21.168Z,7.06
2023-03-11T13:02:43.172Z,7.09
2023-03-11T13:05:00.040Z,7.10
2023-03-11T13:07:28.641Z,7.06
2023-03-11T13:09:33.366Z,7.02
2023-03-11T13:11:44.763Z,6.98
2023-03-11T13:13:49.507Z,7.02
2023-03-11T13:15:55.110Z,7.03
2023-03-11T13:18:02.356Z,6.98
2023-03-11T13:20:43.300Z,6.94
2023-03-11T13:23:24.541Z,6.90
2023-03-11T13:25:43.624Z,6.84
2023-03-11T13:27:51.801Z,6.84
2023-03-11T13:30:06.334Z,6.82
2023-03-11T13:32:42.321Z,6.82
2023-03-11T13:34:54.864Z,6.83
2023-03-11T13:37:20.840Z,6.86
2023-03-11T13:39:37.090Z,6.90
2023-03-11T13:41:43.941Z,6.90
2023-03-11T13:43:51.339Z,6.92
2023-03-11T13:46:02.075Z,6.91
2023-03-11T13:48:13.965Z,6.91
2023-03-11T13:50:26.190Z,6.89
2023-03-11T13:52:35.030Z,6.91
2023-03-11T13:54:46.495Z,6.88
2023-03-11T13:56:56.791Z,6.85
2023-03-11T13:59:18.465Z,6.87
2023-03-11T14:01:23.642Z,6.86
2023-03-11T14:03:33.733Z,6.81
2023-03-11T14:05:45.495Z,6.78
2023-03-11T14:07:50.489Z,6.76
2023-03-11T14:10:24.573Z,6.69
2023-03-11T14:12:32.625Z,6.62
2023-03-11T14:14:56.663Z,6.58
2023-03-11T14:17:02.906Z,6.53
2023-03-11T14:19:14.531Z,6.49
2023-03-11T14:21:22.598Z,6.46
2023-03-11T14:23:30.720Z,6.44
2023-03-11T14:25:35.814Z,6.41
2023-03-11T14:27:46.421Z,6.41
2023-03-11T14:29:52.174Z,6.45
2023-03-11T14:31:57.484Z,6.51
2023-03-11T14:34:04.892Z,6.52
2023-03-11T14:36:15.285Z,6.58
2023-03-11T14:38:24.887Z,6.60
2023-03-11T14:40:33.038Z,6.61
2023-03-11T14:42:41.310Z,6.63
2023-03-11T14:44:52.531Z,6.65
2023-03-11T14:47:04.778Z,6.68
2023-03-11T14:49:16.299Z,6.65
2023-03-11T14:51:27.176Z,6.64
2023-03-11T14:53:37.895Z,6.62
2023-03-11T14:55:47.836Z,6.61
2023-03-11T14:57:57.554Z,6.58
2023-03-11T15:00:04.998Z,6.57
2023-03-11T15:02:33.175Z,6.58
2023-03-11T15:04:41.208Z,6.60
2023-03-11T15:06:47.756Z,6.62
2023-03-11T15:08:56.362Z,6.61
2023-03-11T15:11:06.756Z,6.63
2023-03-11T15:13:16.584Z,6.62
2023-03-11T15:15:28.163Z,6.59
2023-03-11T15:17:39.497Z,6.56
2023-03-11T15:19:48.322Z,6.55
2023-03-11T15:21:54.649Z,6.53
2023-03-11T15:24:03.214Z,6.52
2023-03-11T15:26:16.866Z,6.50
2023-03-11T15:28:28.248Z,6.46
2023-03-11T15:30:33.305Z,6.46
2023-03-11T15:32:42.633Z,6.45
2023-03-11T15:34:59.885Z,6.42
2023-03-11T15:37:21.495Z,6.38
2023-03-11T15:39:40.833Z,6.35
2023-03-11T15:41:47.601Z,6.26
2023-03-11T15:43:53.611Z,6.21
2023-03-11T15:46:02.109Z,6.19
2023-03-11T15:48:10.221Z,6.19
2023-03-11T15:50:46.791Z,6.19
2023-03-11T15:53:00.770Z,6.20
2023-03-11T15:55:07.403Z,6.21
2023-03-11T15:57:20.946Z,6.20
2023-03-11T15:59:29.051Z,6.17
2023-03-11T16:01:35.012Z,6.13
2023-03-11T16:03:39.963Z,6.12
2023-03-11T16:05:47.207Z,6.10
2023-03-11T16:07:52.111Z,6.09
2023-03-11T16:09:58.416Z,6.04
2023-03-11T16:12:09.279Z,5.98
2023-03-11T16:14:19.152Z,5.94
2023-03-11T16:16:25.363Z,5.89
2023-03-11T16:18:30.809Z,5.82
2023-03-11T16:20:40.171Z,5.79
2023-03-11T16:22:46.055Z,5.77
2023-03-11T16:24:54.042Z,5.74
2023-03-11T16:26:59.371Z,5.70
2023-03-11T16:29:18.298Z,5.66
2023-03-11T16:31:24.655Z,5.60
2023-03-11T16:33:29.817Z,5.56
2023-03-11T16:35:35.919Z,5.54
2023-03-11T16:37:41.697Z,5.54
2023-03-11T16:39:47.107Z,5.54
2023-03-11T16:41:54.642Z,5.52
2023-03-11T16:43:59.445Z,5.50
2023-03-11T16:46:04.776Z,5.47
2023-03-11T16:48:11.006Z,5.45
2023-03-11T16:50:16.973Z,5.45
2023-03-11T16:52:23.236Z,5.45
2023-03-11T16:54:28.816Z,5.45
2023-03-11T16:56:34.981Z,5.45
2023-03-11T16:58:40.535Z,5.44
2023-03-11T17:00:46.606Z,5.44
2023-03-11T17:02:52.738Z,5.42
2023-03-11T17:04:58.413Z,5.38
2023-03-11T17:07:04.446Z,5.36
2023-03-11T17:09:09.959Z,5.35
2023-03-11T17:11:19.890Z,5.35
2023-03-11T17:13:26.605Z,5.35
2023-03-11T17:15:33.267Z,5.31
2023-03-11T17:17:38.820Z,5.27
2023-03-11T17:19:44.754Z,5.25
2023-03-11T17:21:51.567Z,5.23
2023-03-11T17:23:57.528Z,5.19
2023-03-11T17:26:02.831Z,5.19
2023-03-11T17:28:09.605Z,5.16
2023-03-11T17:30:35.586Z,5.15
2023-03-11T17:32:43.488Z,5.14
2023-03-11T17:34:50.569Z,5.13
2023-03-11T17:36:57.949Z,5.12
2023-03-11T17:39:03.831Z,5.10
2023-03-11T17:41:14.939Z,5.10
2023-03-11T17:43:21.199Z,5.07
2023-03-11T17:45:28.487Z,5.03
2023-03-11T17:47:35.473Z,5.02
2023-03-11T17:49:41.977Z,4.99
2023-03-11T17:51:51.750Z,4.98
2023-03-11T17:53:59.101Z,4.96
2023-03-11T17:56:06.346Z,4.94
2023-03-11T17:58:12.738Z,4.93
2023-03-11T18:00:20.351Z,4.89
2023-03-11T18:02:26.915Z,4.86
2023-03-11T18:04:33.514Z,4.84
2023-03-11T18:06:39.635Z,4.85
2023-03-11T18:08:45.779Z,4.82
2023-03-11T18:10:53.857Z,4.81
2023-03-11T18:13:03.399Z,4.81
2023-03-11T18:15:12.026Z,4.83
2023-03-11T18:17:19.954Z,4.85
2023-03-11T18:19:25.667Z,4.85
2023-03-11T18:21:32.148Z,4.85
2023-03-11T18:23:37.710Z,4.86
2023-03-11T18:25:43.596Z,4.87
2023-03-11T18:27:49.151Z,4.86
2023-03-11T18:29:55.633Z,4.86
2023-03-11T18:32:02.598Z,4.85
2023-03-11T18:34:08.680Z,4.85
2023-03-11T18:36:16.999Z,4.87
2023-03-11T18:38:24.102Z,4.87
2023-03-11T18:40:29.592Z,4.86
2023-03-11T18:42:36.847Z,4.84
2023-03-11T18:44:43.132Z,4.85
2023-03-11T18:46:50.946Z,4.85
2023-03-11T18:48:57.369Z,4.86
2023-03-11T18:51:06.809Z,4.87
2023-03-11T18:53:13.309Z,4.86
2023-03-11T18:55:19.975Z,4.84
2023-03-11T18:57:26.432Z,4.82
2023-03-11T18:59:32.822Z,4.81
2023-03-11T19:01:40.012Z,4.80
2023-03-11T19:03:50.118Z,4.80
2023-03-11T19:05:59.899Z,4.79
2023-03-11T19:08:06.911Z,4.78
2023-03-11T19:10:14.172Z,4.76
2023-03-11T19:12:20.942Z,4.77
2023-03-11T19:14:26.756Z,4.76
2023-03-11T19:16:34.016Z,4.76
2023-03-11T19:18:40.348Z,4.74
2023-03-11T19:20:56.999Z,4.72
2023-03-11T19:23:02.564Z,4.72
2023-03-11T19:25:10.392Z,4.71
2023-03-11T19:27:18.890Z,4.71
2023-03-11T19:29:26.049Z,4.68
2023-03-11T19:31:33.965Z,4.66
2023-03-11T19:33:40.191Z,4.63
2023-03-11T19:35:51.808Z,4.60
2023-03-11T19:37:57.812Z,4.56
2023-03-11T19:40:03.586Z,4.52
2023-03-11T19:42:13.140Z,4.47
2023-03-11T19:44:22.362Z,4.43
2023-03-11T19:46:28.273Z,4.42
2023-03-11T19:48:34.885Z,4.40
2023-03-11T19:50:47.658Z,4.39
2023-03-11T19:52:54.396Z,4.36
2023-03-11T19:55:00.745Z,4.35
2023-03-11T19:57:07.774Z,4.32
2023-03-11T19:59:14.433Z,4.32
2023-03-11T20:01:21.944Z,4.32
2023-03-11T20:03:29.261Z,4.32
2023-03-11T20:05:37.041Z,4.29
2023-03-11T20:07:43.479Z,4.26
2023-03-11T20:09:49.550Z,4.23
2023-03-11T20:11:55.402Z,4.19
2023-03-11T20:14:02.719Z,4.17
2023-03-11T20:16:12.721Z,4.13
2023-03-11T20:18:20.195Z,4.13
2023-03-11T20:20:25.575Z,4.11
2023-03-11T20:22:30.778Z,4.10
2023-03-11T20:24:36.733Z,4.09
2023-03-11T20:26:42.741Z,4.08
2023-03-11T20:28:48.663Z,4.05
2023-03-11T20:30:58.805Z,4.03
2023-03-11T20:33:05.385Z,4.00
2023-03-11T20:35:13.674Z,3.97
2023-03-11T20:37:19.737Z,3.95
2023-03-11T20:39:26.900Z,3.94
2023-03-11T20:41:37.814Z,3.92
2023-03-11T20:43:45.260Z,3.92
2023-03-11T20:45:51.236Z,3.91
2023-03-11T20:47:57.329Z,3.91
2023-03-11T20:50:03.204Z,3.90
2023-03-11T20:52:09.563Z,3.90
2023-03-11T20:54:15.953Z,3.89
2023-03-11T20:56:24.035Z,3.89
2023-03-11T20:58:29.802Z,3.90
2023-03-11T21:00:35.525Z,3.88
2023-03-11T21:02:42.268Z,3.88
2023-03-11T21:04:48.677Z,3.86
2023-03-11T21:06:54.437Z,3.85
2023-03-11T21:09:02.054Z,3.84
2023-03-11T21:11:08.211Z,3.81
2023-03-11T21:13:13.589Z,3.78
2023-03-11T21:15:20.647Z,3.77
2023-03-11T21:17:26.311Z,3.74
2023-03-11T21:19:32.233Z,3.70
2023-03-11T21:21:38.326Z,3.69
2023-03-11T21:23:44.359Z,3.67
2023-03-11T21:25:49.730Z,3.67
2023-03-11T21:27:54.798Z,3.66
2023-03-11T21:30:01.008Z,3.64
2023-03-11T21:32:06.369Z,3.64
2023-03-11T21:34:12.370Z,3.63
2023-03-11T21:36:18.347Z,3.62
2023-03-11T21:38:23.616Z,3.63
2023-03-11T21:40:29.220Z,3.63
2023-03-11T21:42:34.503Z,3.63
2023-03-11T21:44:40.479Z,3.62
2023-03-11T21:46:45.235Z,3.61
2023-03-11T21:48:50.461Z,3.61
2023-03-11T21:50:55.183Z,3.60
2023-03-11T21:53:00.209Z,3.58
2023-03-11T21:55:05.589Z,3.59
2023-03-11T21:57:13.081Z,3.60
2023-03-11T21:59:18.020Z,3.60
2023-03-11T22:01:22.897Z,3.59
2023-03-11T22:03:28.095Z,3.59
2023-03-11T22:05:33.170Z,3.60
2023-03-11T22:07:38.126Z,3.62
2023-03-11T22:09:43.083Z,3.60
2023-03-11T22:11:47.951Z,3.60
2023-03-11T22:13:54.502Z,3.60
2023-03-11T22:16:01.769Z,3.59
2023-03-11T22:18:06.801Z,3.57
2023-03-11T22:20:13.447Z,3.56
2023-03-11T22:22:18.454Z,3.53
2023-03-11T22:24:23.212Z,3.50
2023-03-11T22:26:27.954Z,3.48
2023-03-11T22:28:33.290Z,3.46
2023-03-11T22:30:38.224Z,3.45
2023-03-11T22:32:43.045Z,3.44
2023-03-11T22:34:47.719Z,3.42
2023-03-11T22:36:52.452Z,3.40
2023-03-11T22:38:57.268Z,3.40
2023-03-11T22:41:03.584Z,3.40
2023-03-11T22:43:08.343Z,3.39
2023-03-11T22:45:13.581Z,3.37
2023-03-11T22:47:18.354Z,3.37
2023-03-11T22:49:23.043Z,3.37
2023-03-11T22:51:27.882Z,3.35
2023-03-11T22:53:32.637Z,3.34
2023-03-11T22:55:41.402Z,3.33
2023-03-11T22:57:46.272Z,3.31
2023-03-11T22:59:51.094Z,3.30
2023-03-11T23:01:56.795Z,3.27
2023-03-11T23:04:01.513Z,3.24
2023-03-11T23:06:08.756Z,3.21
2023-03-11T23:08:16.163Z,3.20
2023-03-11T23:10:21.460Z,3.20
2023-03-11T23:12:26.325Z,3.19
2023-03-11T23:14:44.149Z,3.19
2023-03-11T23:16:49.978Z,3.17
2023-03-11T23:18:58.880Z,3.14
2023-03-11T23:21:03.833Z,3.13
2023-03-11T23:23:09.030Z,3.12
2023-03-11T23:25:16.583Z,3.11
2023-03-11T23:27:21.351Z,3.09
2023-03-11T23:29:26.094Z,3.07
2023-03-11T23:31:31.101Z,3.05
2023-03-11T23:33:35.997Z,3.04
2023-03-11T23:35:43.158Z,3.03
2023-03-11T23:37:50.826Z,3.02
2023-03-11T23:39:55.635Z,2.99
2023-03-11T23:42:02.064Z,3.00
2023-03-11T23:44:06.992Z,2.98
2023-03-11T23:46:11.836Z,2.97
2023-03-11T23:48:16.531Z,2.95
2023-03-11T23:50:21.389Z,2.94
2023-03-11T23:52:26.508Z,2.94
2023-03-11T23:54:31.162Z,2.94
2023-03-11T23:56:35.806Z,2.93
2023-03-11T23:58:40.650Z,2.92
